createdAt,value
2022-11-03T00:00:12.855Z,51.185810
2022-11-03T00:01:11.456Z,51.185825
2022-11-03T00:02:11.580Z,51.185780
2022-11-03T00:03:11.358Z,51.185764
2022-11-03T00:04:11.358Z,51.185825
2022-11-03T00:05:11.780Z,51.185841
2022-11-03T00:06:11.363Z,51.185833
2022-11-03T00:07:11.340Z,51.185772
2022-11-03T00:09:11.343Z,51.185806
2022-11-03T00:10:11.361Z,51.185822
2022-11-03T00:11:11.313Z,51.185791
2022-11-03T00:12:11.292Z,51.185810
2022-11-03T00:13:11.301Z,51.185818
2022-11-03T00:14:11.330Z,51.185764
2022-11-03T00:15:11.295Z,51.185829
2022-11-03T00:16:11.269Z,51.185875
2022-11-03T00:17:11.270Z,51.185856
2022-11-03T00:18:11.250Z,51.185837
2022-11-03T00:19:11.250Z,51.185806
2022-11-03T00:20:11.256Z,51.185829
2022-11-03T00:21:11.268Z,51.185871
2022-11-03T00:22:11.292Z,51.185886
2022-11-03T00:23:11.216Z,51.185863
2022-11-03T00:24:11.209Z,51.185833
2022-11-03T00:25:11.210Z,51.185825
2022-11-03T00:26:12.009Z,51.185825
2022-11-03T00:27:11.201Z,51.185875
2022-11-03T00:28:11.239Z,51.185860
2022-11-03T00:29:11.213Z,51.185860
2022-11-03T00:30:11.195Z,51.185802
2022-11-03T00:31:11.162Z,51.185791
2022-11-03T00:32:11.288Z,51.185806
2022-11-03T00:33:11.156Z,51.185802
2022-11-03T00:34:11.178Z,51.185848
2022-11-03T00:35:11.151Z,51.185822
2022-11-03T00:36:11.148Z,51.185810
2022-11-03T00:37:11.131Z,51.185825
2022-11-03T00:38:11.114Z,51.185799
2022-11-03T00:39:11.132Z,51.185745
2022-11-03T00:40:11.109Z,51.185810
2022-11-03T00:41:11.093Z,51.185799
2022-11-03T00:42:11.097Z,51.185764
2022-11-03T00:43:11.074Z,51.185806
2022-11-03T00:44:11.139Z,51.185741
2022-11-03T00:45:11.072Z,51.185863
2022-11-03T00:46:11.088Z,51.185825
2022-11-03T00:47:11.501Z,51.185837
2022-11-03T00:48:11.060Z,51.185806
2022-11-03T00:49:11.049Z,51.185799
2022-11-03T00:50:11.116Z,51.185822
2022-11-03T00:51:11.034Z,51.185810
2022-11-03T00:52:11.033Z,51.185802
2022-11-03T00:53:11.019Z,51.185802
2022-11-03T00:54:11.029Z,51.185772
2022-11-03T00:55:11.010Z,51.185780
2022-11-03T00:56:11.004Z,51.185810
2022-11-03T00:57:11.025Z,51.185753
2022-11-03T00:58:10.993Z,51.185791
2022-11-03T00:59:10.989Z,51.185833
2022-11-03T01:00:10.968Z,51.185863
2022-11-03T01:01:11.040Z,51.185848
2022-11-03T01:02:11.094Z,51.185822
2022-11-03T01:03:10.957Z,51.185852
2022-11-03T01:04:11.892Z,51.185753
2022-11-03T01:05:10.932Z,51.185760
2022-11-03T01:06:10.920Z,51.185772
2022-11-03T01:07:10.930Z,51.185806
2022-11-03T01:08:10.918Z,51.185799
2022-11-03T01:09:10.914Z,51.185818
2022-11-03T01:10:10.913Z,51.185780
2022-11-03T01:11:10.904Z,51.185818
2022-11-03T01:12:10.893Z,51.185814
2022-11-03T01:13:12.053Z,51.185764
2022-11-03T01:14:10.871Z,51.185787
2022-11-03T01:15:10.878Z,51.185757
2022-11-03T01:16:10.868Z,51.185829
2022-11-03T01:17:11.803Z,51.185738
2022-11-03T01:18:10.889Z,51.185749
2022-11-03T01:19:10.843Z,51.185795
2022-11-03T01:20:11.518Z,51.185791
2022-11-03T01:21:10.836Z,51.185814
2022-11-03T01:22:11.425Z,51.185814
2022-11-03T01:23:10.865Z,51.185818
2022-11-03T01:24:10.814Z,51.185814
2022-11-03T01:25:10.818Z,51.185829
2022-11-03T01:26:10.799Z,51.185806
2022-11-03T01:27:11.807Z,51.185822
2022-11-03T01:28:10.792Z,51.185841
2022-11-03T01:29:10.775Z,51.185806
2022-11-03T01:30:10.781Z,51.185802
2022-11-03T01:31:10.804Z,51.185818
2022-11-03T01:32:10.763Z,51.185822
2022-11-03T01:33:11.366Z,51.185825
2022-11-03T01:34:10.770Z,51.185829
2022-11-03T01:35:10.747Z,51.185833
2022-11-03T01:36:10.740Z,51.185856
2022-11-03T01:37:10.731Z,51.185852
2022-11-03T01:38:10.736Z,51.185841
2022-11-03T01:39:11.261Z,51.185829
2022-11-03T01:40:10.708Z,51.185814
2022-11-03T01:41:10.774Z,51.185810
2022-11-03T01:42:10.703Z,51.185818
2022-11-03T01:43:10.713Z,51.185802
2022-11-03T01:44:10.688Z,51.185814
2022-11-03T01:45:10.682Z,51.185791
2022-11-03T01:46:11.021Z,51.185764
2022-11-03T01:47:10.659Z,51.185753
2022-11-03T01:48:10.667Z,51.185745
2022-11-03T01:49:10.646Z,51.185829
2022-11-03T01:50:10.665Z,51.185867
2022-11-03T01:51:10.631Z,51.185841
2022-11-03T01:52:10.634Z,51.185802
2022-11-03T01:53:10.707Z,51.185844
2022-11-03T01:54:10.611Z,51.185844
2022-11-03T01:55:10.603Z,51.185837
2022-11-03T01:56:11.047Z,51.185814
2022-11-03T01:57:10.592Z,51.185822
2022-11-03T01:58:10.582Z,51.185841
2022-11-03T01:59:10.610Z,51.185837
2022-11-03T02:00:10.576Z,51.185806
2022-11-03T02:01:10.710Z,51.185814
2022-11-03T02:02:10.834Z,51.185814
2022-11-03T02:03:10.974Z,51.185806
2022-11-03T02:04:10.543Z,51.185841
2022-11-03T02:05:10.544Z,51.185837
2022-11-03T02:06:10.583Z,51.185867
2022-11-03T02:07:10.527Z,51.185848
2022-11-03T02:08:10.555Z,51.185844
2022-11-03T02:09:10.524Z,51.185860
2022-11-03T02:10:10.513Z,51.185871
2022-11-03T02:11:10.494Z,51.185856
2022-11-03T02:12:10.501Z,51.185825
2022-11-03T02:13:10.503Z,51.185802
2022-11-03T02:14:10.538Z,51.185886
2022-11-03T02:15:10.473Z,51.185852
2022-11-03T02:16:10.459Z,51.185833
2022-11-03T02:17:10.466Z,51.185772
2022-11-03T02:18:10.504Z,51.185871
2022-11-03T02:19:10.463Z,51.185810
2022-11-03T02:20:11.547Z,51.185883
2022-11-03T02:21:10.428Z,51.185909
2022-11-03T02:22:10.516Z,51.185909
2022-11-03T02:23:10.568Z,51.185863
2022-11-03T02:24:10.414Z,51.185871
2022-11-03T02:25:10.402Z,51.185841
2022-11-03T02:26:10.892Z,51.185894
2022-11-03T02:27:10.407Z,51.185909
2022-11-03T02:28:10.386Z,51.185970
2022-11-03T02:29:10.378Z,51.185871
2022-11-03T02:30:10.415Z,51.185963
2022-11-03T02:31:10.376Z,51.185928
2022-11-03T02:32:10.413Z,51.185883
2022-11-03T02:33:10.349Z,51.185886
2022-11-03T02:34:10.351Z,51.185818
2022-11-03T02:35:10.351Z,51.185822
2022-11-03T02:36:10.344Z,51.185936
2022-11-03T02:37:10.947Z,51.185898
2022-11-03T02:38:10.349Z,51.185844
2022-11-03T02:39:10.318Z,51.185856
2022-11-03T02:40:10.310Z,51.185875
2022-11-03T02:41:10.302Z,51.185848
2022-11-03T02:42:10.289Z,51.185856
2022-11-03T02:43:10.286Z,51.185844
2022-11-03T02:44:10.288Z,51.185841
2022-11-03T02:45:13.321Z,51.185837
2022-11-03T02:46:11.283Z,51.185844
2022-11-03T02:47:10.261Z,51.185867
2022-11-03T02:48:10.250Z,51.185890
2022-11-03T02:49:10.250Z,51.185879
2022-11-03T02:50:10.257Z,51.185837
2022-11-03T02:51:10.243Z,51.185825
2022-11-03T02:52:10.239Z,51.185867
2022-11-03T02:53:10.218Z,51.185829
2022-11-03T02:54:10.238Z,51.185860
2022-11-03T02:55:10.209Z,51.185783
2022-11-03T02:56:10.223Z,51.185810
2022-11-03T02:57:10.204Z,51.185822
2022-11-03T02:58:10.216Z,51.185863
2022-11-03T02:59:10.183Z,51.185860
2022-11-03T03:00:10.180Z,51.185886
2022-11-03T03:01:10.221Z,51.185844
2022-11-03T03:02:10.363Z,51.185886
2022-11-03T03:03:10.166Z,51.185894
2022-11-03T03:04:10.148Z,51.185818
2022-11-03T03:05:10.141Z,51.185841
2022-11-03T03:06:10.134Z,51.185841
2022-11-03T03:07:10.123Z,51.185867
2022-11-03T03:08:10.125Z,51.185867
2022-11-03T03:09:11.389Z,51.185852
2022-11-03T03:10:10.134Z,51.185818
2022-11-03T03:11:10.102Z,51.185833
2022-11-03T03:12:10.094Z,51.185810
2022-11-03T03:13:10.156Z,51.185745
2022-11-03T03:14:10.083Z,51.185776
2022-11-03T03:15:10.089Z,51.185917
2022-11-03T03:16:10.079Z,51.185825
2022-11-03T03:17:10.062Z,51.185787
2022-11-03T03:18:10.050Z,51.185799
2022-11-03T03:19:10.041Z,51.185806
2022-11-03T03:20:10.042Z,51.185879
2022-11-03T03:21:10.037Z,51.185883
2022-11-03T03:22:10.046Z,51.185989
2022-11-03T03:23:11.816Z,51.185925
2022-11-03T03:24:10.012Z,51.185814
2022-11-03T03:25:10.010Z,51.185802
2022-11-03T03:26:10.022Z,51.185806
2022-11-03T03:27:10.411Z,51.185791
2022-11-03T03:28:09.989Z,51.185757
2022-11-03T03:29:09.983Z,51.185802
2022-11-03T03:30:09.993Z,51.185844
2022-11-03T03:31:09.974Z,51.185806
2022-11-03T03:32:10.629Z,51.185776
2022-11-03T03:33:10.274Z,51.185810
2022-11-03T03:34:24.059Z,51.185806
2022-11-03T03:35:10.973Z,51.185818
2022-11-03T03:36:09.931Z,51.185833
2022-11-03T03:37:09.931Z,51.185833
2022-11-03T03:38:10.318Z,51.185837
2022-11-03T03:39:09.929Z,51.185822
2022-11-03T03:40:09.954Z,51.185768
2022-11-03T03:41:10.978Z,51.185818
2022-11-03T03:42:09.934Z,51.185810
2022-11-03T03:43:10.684Z,51.185825
2022-11-03T03:44:09.882Z,51.185791
2022-11-03T03:45:09.904Z,51.185806
2022-11-03T03:46:09.884Z,51.185787
2022-11-03T03:47:09.865Z,51.185806
2022-11-03T03:48:10.177Z,51.185810
2022-11-03T03:49:09.849Z,51.185932
2022-11-03T03:50:09.853Z,51.185818
2022-11-03T03:51:09.827Z,51.185822
2022-11-03T03:52:09.834Z,51.185829
2022-11-03T03:53:09.866Z,51.185875
2022-11-03T03:54:09.816Z,51.185890
2022-11-03T03:55:09.812Z,51.185810
2022-11-03T03:56:09.819Z,51.185890
2022-11-03T03:57:09.794Z,51.185822
2022-11-03T03:58:10.064Z,51.185806
2022-11-03T03:59:09.828Z,51.185806
2022-11-03T04:00:09.782Z,51.185837
2022-11-03T04:01:09.829Z,51.185856
2022-11-03T04:02:09.956Z,51.185829
2022-11-03T04:03:10.049Z,51.185829
2022-11-03T04:04:09.746Z,51.185825
2022-11-03T04:05:09.758Z,51.185799
2022-11-03T04:06:09.734Z,51.185799
2022-11-03T04:07:09.749Z,51.185837
2022-11-03T04:08:09.838Z,51.185825
2022-11-03T04:09:09.727Z,51.185783
2022-11-03T04:10:09.705Z,51.185741
2022-11-03T04:11:09.711Z,51.185741
2022-11-03T04:12:09.694Z,51.185776
2022-11-03T04:13:09.684Z,51.185730
2022-11-03T04:14:09.706Z,51.185848
2022-11-03T04:15:09.691Z,51.185810
2022-11-03T04:16:09.662Z,51.185776
2022-11-03T04:17:09.662Z,51.185814
2022-11-03T04:18:10.322Z,51.185783
2022-11-03T04:19:09.649Z,51.185825
2022-11-03T04:20:09.639Z,51.185799
2022-11-03T04:21:10.296Z,51.185799
2022-11-03T04:22:10.295Z,51.185802
2022-11-03T04:23:09.622Z,51.185768
2022-11-03T04:24:09.617Z,51.185764
2022-11-03T04:25:09.610Z,51.185757
2022-11-03T04:26:09.608Z,51.185753
2022-11-03T04:27:09.600Z,51.185791
2022-11-03T04:28:09.596Z,51.185814
2022-11-03T04:29:09.586Z,51.185814
2022-11-03T04:30:09.608Z,51.185795
2022-11-03T04:31:09.568Z,51.185776
2022-11-03T04:32:09.574Z,51.185787
2022-11-03T04:33:09.568Z,51.185780
2022-11-03T04:34:09.548Z,51.185799
2022-11-03T04:35:09.542Z,51.185802
2022-11-03T04:36:09.549Z,51.185802
2022-11-03T04:37:09.528Z,51.185791
2022-11-03T04:38:09.807Z,51.185764
2022-11-03T04:39:09.509Z,51.185795
2022-11-03T04:40:09.515Z,51.185802
2022-11-03T04:41:10.288Z,51.185806
2022-11-03T04:42:16.553Z,51.185787
2022-11-03T04:43:10.297Z,51.185780
2022-11-03T04:44:10.197Z,51.185822
2022-11-03T04:45:09.476Z,51.185806
2022-11-03T04:46:09.598Z,51.185783
2022-11-03T04:47:09.463Z,51.185802
2022-11-03T04:48:09.456Z,51.185730
2022-11-03T04:49:09.449Z,51.185749
2022-11-03T04:50:09.463Z,51.185741
2022-11-03T04:51:09.430Z,51.185818
2022-11-03T04:52:09.430Z,51.185776
2022-11-03T04:53:09.660Z,51.185711
2022-11-03T04:54:09.422Z,51.185719
2022-11-03T04:55:09.415Z,51.185745
2022-11-03T04:56:09.476Z,51.185692
2022-11-03T04:57:09.387Z,51.185780
2022-11-03T04:58:09.391Z,51.185760
2022-11-03T04:59:09.379Z,51.185780
2022-11-03T05:00:09.412Z,51.185745
2022-11-03T05:01:09.430Z,51.185802
2022-11-03T05:03:09.817Z,51.185806
2022-11-03T05:04:09.379Z,51.185829
2022-11-03T05:05:09.377Z,51.185799
2022-11-03T05:06:09.340Z,51.185822
2022-11-03T05:07:10.009Z,51.185875
2022-11-03T05:08:09.319Z,51.185829
2022-11-03T05:09:09.319Z,51.185814
2022-11-03T05:10:10.048Z,51.185841
2022-11-03T05:11:09.312Z,51.185802
2022-11-03T05:12:09.429Z,51.185833
2022-11-03T05:13:09.412Z,51.185833
2022-11-03T05:14:09.289Z,51.185799
2022-11-03T05:15:09.271Z,51.185795
2022-11-03T05:16:09.273Z,51.185776
2022-11-03T05:17:09.274Z,51.185783
2022-11-03T05:18:09.287Z,51.185795
2022-11-03T05:19:09.250Z,51.185772
2022-11-03T05:20:09.244Z,51.185795
2022-11-03T05:21:10.108Z,51.185844
2022-11-03T05:22:09.228Z,51.185802
2022-11-03T05:23:09.514Z,51.185738
2022-11-03T05:24:09.276Z,51.185730
2022-11-03T05:25:09.211Z,51.185825
2022-11-03T05:26:09.228Z,51.185738
2022-11-03T05:27:09.195Z,51.185783
2022-11-03T05:28:09.423Z,51.185776
2022-11-03T05:29:09.201Z,51.185776
2022-11-03T05:30:09.179Z,51.185760
2022-11-03T05:31:09.181Z,51.185772
2022-11-03T05:32:09.641Z,51.185757
2022-11-03T05:33:09.157Z,51.185745
2022-11-03T05:34:09.174Z,51.185738
2022-11-03T05:35:09.147Z,51.185764
2022-11-03T05:36:09.142Z,51.185776
2022-11-03T05:37:09.781Z,51.185776
2022-11-03T05:38:09.393Z,51.185772
2022-11-03T05:39:09.114Z,51.185806
2022-11-03T05:40:09.108Z,51.185757
2022-11-03T05:41:09.108Z,51.185745
2022-11-03T05:42:09.099Z,51.185829
2022-11-03T05:43:12.192Z,51.185711
2022-11-03T05:44:09.104Z,51.185791
2022-11-03T05:45:09.074Z,51.185875
2022-11-03T05:46:09.083Z,51.185749
2022-11-03T05:47:09.060Z,51.185837
2022-11-03T05:48:09.342Z,51.185833
2022-11-03T05:49:09.059Z,51.185806
2022-11-03T05:50:09.105Z,51.185806
2022-11-03T05:51:09.040Z,51.185825
2022-11-03T05:52:09.030Z,51.185818
2022-11-03T05:53:09.030Z,51.185825
2022-11-03T05:54:09.088Z,51.185829
2022-11-03T05:55:09.453Z,51.185776
2022-11-03T05:56:09.025Z,51.185806
2022-11-03T05:57:09.003Z,51.185802
2022-11-03T05:58:09.380Z,51.185741
2022-11-03T05:59:08.994Z,51.185791
2022-11-03T06:00:09.037Z,51.185860
2022-11-03T06:01:08.984Z,51.185791
2022-11-03T06:02:09.171Z,51.185806
2022-11-03T06:03:09.545Z,51.185867
2022-11-03T06:04:09.000Z,51.185802
2022-11-03T06:05:08.983Z,51.185848
2022-11-03T06:06:08.982Z,51.185780
2022-11-03T06:07:09.005Z,51.185829
2022-11-03T06:08:09.364Z,51.185791
2022-11-03T06:09:08.958Z,51.185799
2022-11-03T06:10:08.924Z,51.185738
2022-11-03T06:11:08.916Z,51.185783
2022-11-03T06:12:08.906Z,51.185814
2022-11-03T06:13:12.163Z,51.185833
2022-11-03T06:14:08.902Z,51.185825
2022-11-03T06:15:08.874Z,51.185825
2022-11-03T06:16:08.881Z,51.185841
2022-11-03T06:17:08.867Z,51.185753
2022-11-03T06:18:08.859Z,51.185886
2022-11-03T06:19:08.856Z,51.185879
2022-11-03T06:20:08.850Z,51.185650
2022-11-03T06:21:08.858Z,51.185749
2022-11-03T06:22:09.524Z,51.185814
2022-11-03T06:23:09.198Z,51.185841
2022-11-03T06:24:08.832Z,51.185841
2022-11-03T06:25:08.811Z,51.185757
2022-11-03T06:26:08.833Z,51.185822
2022-11-03T06:27:08.798Z,51.185825
2022-11-03T06:28:08.792Z,51.185837
2022-11-03T06:29:08.831Z,51.185810
2022-11-03T06:30:08.775Z,51.185822
2022-11-03T06:31:08.774Z,51.185783
2022-11-03T06:32:08.772Z,51.185848
2022-11-03T06:33:09.074Z,51.185844
2022-11-03T06:34:08.760Z,51.185829
2022-11-03T06:35:08.740Z,51.185802
2022-11-03T06:36:08.753Z,51.185829
2022-11-03T06:37:12.557Z,51.185814
2022-11-03T06:38:08.783Z,51.185818
2022-11-03T06:39:09.620Z,51.185810
2022-11-03T06:40:08.712Z,51.185814
2022-11-03T06:41:08.714Z,51.185852
2022-11-03T06:42:08.699Z,51.185829
2022-11-03T06:43:08.971Z,51.185829
2022-11-03T06:44:08.707Z,51.185806
2022-11-03T06:45:08.676Z,51.185818
2022-11-03T06:46:08.682Z,51.185844
2022-11-03T06:47:09.293Z,51.185837
2022-11-03T06:48:08.656Z,51.185818
2022-11-03T06:49:08.655Z,51.185783
2022-11-03T06:50:08.646Z,51.185829
2022-11-03T06:51:08.642Z,51.185841
2022-11-03T06:52:08.634Z,51.185822
2022-11-03T06:53:08.904Z,51.185883
2022-11-03T06:54:08.639Z,51.185799
2022-11-03T06:55:12.183Z,51.185772
2022-11-03T06:56:09.608Z,51.185848
2022-11-03T06:57:08.604Z,51.185871
2022-11-03T06:58:08.612Z,51.185822
2022-11-03T06:59:08.580Z,51.185898
2022-11-03T07:00:28.657Z,51.185867
2022-11-03T07:01:09.707Z,51.185841
2022-11-03T07:02:08.703Z,51.185844
2022-11-03T07:03:08.904Z,51.185844
2022-11-03T07:04:08.556Z,51.185856
2022-11-03T07:05:08.543Z,51.185863
2022-11-03T07:06:08.614Z,51.185837
2022-11-03T07:07:08.529Z,51.185822
2022-11-03T07:08:08.558Z,51.185863
2022-11-03T07:09:08.534Z,51.185879
2022-11-03T07:10:08.574Z,51.185871
2022-11-03T07:11:08.522Z,51.185863
2022-11-03T07:12:08.507Z,51.185860
2022-11-03T07:13:08.767Z,51.185829
2022-11-03T07:14:08.527Z,51.185825
2022-11-03T07:15:08.509Z,51.185822
2022-11-03T07:16:08.504Z,51.185841
2022-11-03T07:17:08.468Z,51.185844
2022-11-03T07:18:08.913Z,51.185852
2022-11-03T07:19:08.450Z,51.185787
2022-11-03T07:20:08.455Z,51.185814
2022-11-03T07:21:08.442Z,51.185806
2022-11-03T07:22:08.445Z,51.185814
2022-11-03T07:23:08.429Z,51.185894
2022-11-03T07:24:08.414Z,51.185783
2022-11-03T07:25:08.416Z,51.185814
2022-11-03T07:26:08.432Z,51.185806
2022-11-03T07:27:08.428Z,51.185802
2022-11-03T07:28:08.797Z,51.185818
2022-11-03T07:29:08.405Z,51.185799
2022-11-03T07:30:08.383Z,51.185829
2022-11-03T07:31:11.232Z,51.185829
2022-11-03T07:32:09.382Z,51.185806
2022-11-03T07:33:08.356Z,51.185806
2022-11-03T07:34:08.359Z,51.185810
2022-11-03T07:35:08.341Z,51.185814
2022-11-03T07:36:15.559Z,51.185822
2022-11-03T07:37:09.379Z,51.185814
2022-11-03T07:38:08.674Z,51.185795
2022-11-03T07:39:08.321Z,51.185818
2022-11-03T07:40:08.313Z,51.185760
2022-11-03T07:41:08.298Z,51.185776
2022-11-03T07:42:08.317Z,51.185799
2022-11-03T07:43:08.319Z,51.185799
2022-11-03T07:44:09.044Z,51.185848
2022-11-03T07:45:08.276Z,51.185806
2022-11-03T07:46:08.280Z,51.185844
2022-11-03T07:47:08.263Z,51.185822
2022-11-03T07:48:08.739Z,51.185822
2022-11-03T07:49:08.303Z,51.185780
2022-11-03T07:50:08.236Z,51.185791
2022-11-03T07:51:08.271Z,51.185860
2022-11-03T07:52:08.221Z,51.185818
2022-11-03T07:53:08.220Z,51.185841
2022-11-03T07:54:08.203Z,51.185795
2022-11-03T07:55:08.239Z,51.185795
2022-11-03T07:56:08.251Z,51.185776
2022-11-03T07:57:08.189Z,51.185818
2022-11-03T07:58:08.941Z,51.185791
2022-11-03T07:59:08.251Z,51.185802
2022-11-03T08:00:10.358Z,51.185806
2022-11-03T08:01:08.151Z,51.185772
2022-11-03T08:02:08.466Z,51.185738
2022-11-03T08:03:08.374Z,51.185764
2022-11-03T08:04:08.136Z,51.185822
2022-11-03T08:05:08.269Z,51.185787
2022-11-03T08:06:09.986Z,51.185799
2022-11-03T08:07:08.543Z,51.185852
2022-11-03T08:08:08.514Z,51.185799
2022-11-03T08:09:08.094Z,51.185738
2022-11-03T08:10:08.197Z,51.185768
2022-11-03T08:11:08.165Z,51.185806
2022-11-03T08:12:08.069Z,51.185810
2022-11-03T08:13:09.027Z,51.185833
2022-11-03T08:14:08.090Z,51.185760
2022-11-03T08:15:08.057Z,51.185757
2022-11-03T08:16:08.056Z,51.185768
2022-11-03T08:17:08.037Z,51.185722
2022-11-03T08:18:08.041Z,51.185753
2022-11-03T08:19:08.348Z,51.185822
2022-11-03T08:20:08.079Z,51.185822
2022-11-03T08:21:08.012Z,51.185837
2022-11-03T08:22:08.013Z,51.185810
2022-11-03T08:24:09.003Z,51.185829
2022-11-03T08:25:07.980Z,51.185776
2022-11-03T08:26:07.977Z,51.185833
2022-11-03T08:27:07.967Z,51.185818
2022-11-03T08:28:07.975Z,51.185848
2022-11-03T08:29:07.944Z,51.185829
2022-11-03T08:30:07.984Z,51.185833
2022-11-03T08:31:12.295Z,51.185825
2022-11-03T08:32:08.925Z,51.185829
2022-11-03T08:33:08.324Z,51.185902
2022-11-03T08:34:08.578Z,51.185833
2022-11-03T08:35:07.903Z,51.185795
2022-11-03T08:36:07.903Z,51.185825
2022-11-03T08:37:08.449Z,51.185822
2022-11-03T08:38:08.270Z,51.185822
2022-11-03T08:39:07.889Z,51.185814
2022-11-03T08:40:08.011Z,51.185829
2022-11-03T08:41:07.873Z,51.185802
2022-11-03T08:42:07.854Z,51.185841
2022-11-03T08:43:08.393Z,51.185841
2022-11-03T08:44:07.850Z,51.185848
2022-11-03T08:45:08.688Z,51.185841
2022-11-03T08:46:15.736Z,51.185814
2022-11-03T08:47:08.813Z,51.185833
2022-11-03T08:48:08.162Z,51.185802
2022-11-03T08:49:07.799Z,51.185818
2022-11-03T08:50:07.811Z,51.185852
2022-11-03T08:51:07.789Z,51.185822
2022-11-03T08:52:07.795Z,51.185837
2022-11-03T08:53:07.793Z,51.185818
2022-11-03T08:54:07.761Z,51.185802
2022-11-03T08:55:07.756Z,51.185837
2022-11-03T08:56:10.536Z,51.185799
2022-11-03T08:57:08.780Z,51.185822
2022-11-03T08:58:08.177Z,51.185799
2022-11-03T08:59:07.728Z,51.185814
2022-11-03T09:00:07.715Z,51.185749
2022-11-03T09:01:07.727Z,51.185768
2022-11-03T09:02:07.807Z,51.185814
2022-11-03T09:03:07.773Z,51.185844
2022-11-03T09:04:07.841Z,51.185844
2022-11-03T09:05:07.700Z,51.185776
2022-11-03T09:06:07.674Z,51.185818
2022-11-03T09:07:07.668Z,51.185780
2022-11-03T09:10:28.385Z,51.185799
2022-11-03T09:11:09.282Z,51.185822
2022-11-03T09:12:07.628Z,51.185776
2022-11-03T09:13:08.054Z,51.185760
2022-11-03T09:14:07.622Z,51.185806
2022-11-03T09:15:07.614Z,51.185780
2022-11-03T09:16:07.607Z,51.185745
2022-11-03T09:17:07.604Z,51.185696
2022-11-03T09:18:08.448Z,51.185745
2022-11-03T09:19:07.598Z,51.185936
2022-11-03T09:20:07.572Z,51.185757
2022-11-03T09:21:07.586Z,51.185661
2022-11-03T09:22:07.571Z,51.185532
2022-11-03T09:23:07.549Z,51.185734
2022-11-03T09:24:07.555Z,51.185745
2022-11-03T09:25:07.547Z,51.185829
2022-11-03T09:26:07.534Z,51.185844
2022-11-03T09:27:07.540Z,51.185863
2022-11-03T09:28:07.894Z,51.185860
2022-11-03T09:29:07.523Z,51.185986
2022-11-03T09:30:13.151Z,51.186024
2022-11-03T09:31:08.491Z,51.185966
2022-11-03T09:32:07.498Z,51.186127
2022-11-03T09:33:07.485Z,51.186092
2022-11-03T09:34:07.497Z,51.185932
2022-11-03T09:35:07.463Z,51.185833
2022-11-03T09:36:07.481Z,51.185822
2022-11-03T09:37:07.449Z,51.185772
2022-11-03T09:38:07.697Z,51.185741
2022-11-03T09:39:07.457Z,51.185802
2022-11-03T09:40:07.427Z,51.185764
2022-11-03T09:41:18.651Z,51.185802
2022-11-03T09:42:08.411Z,51.185825
2022-11-03T09:43:07.670Z,51.185856
2022-11-03T09:44:07.409Z,51.185898
2022-11-03T09:45:07.403Z,51.186058
2022-11-03T09:46:07.388Z,51.185993
2022-11-03T09:47:07.383Z,51.185986
2022-11-03T09:48:07.733Z,51.186001
2022-11-03T09:49:07.851Z,51.185982
2022-11-03T09:50:07.383Z,51.186005
2022-11-03T09:51:07.351Z,51.185944
2022-11-03T09:52:07.337Z,51.186020
2022-11-03T09:53:07.690Z,51.186169
2022-11-03T09:54:07.327Z,51.186241
2022-11-03T09:55:07.319Z,51.186249
2022-11-03T09:56:07.361Z,51.186161
2022-11-03T09:57:07.302Z,51.186214
2022-11-03T09:58:07.790Z,51.186108
2022-11-03T09:59:07.294Z,51.186081
2022-11-03T10:00:07.315Z,51.185947
2022-11-03T10:01:07.323Z,51.185986
2022-11-03T10:02:07.491Z,51.186012
2022-11-03T10:03:07.584Z,51.185982
2022-11-03T10:04:07.329Z,51.185966
2022-11-03T10:05:11.221Z,51.185951
2022-11-03T10:06:11.003Z,51.186100
2022-11-03T10:07:08.224Z,51.185921
2022-11-03T10:08:07.232Z,51.185886
2022-11-03T10:09:07.212Z,51.185822
2022-11-03T10:10:07.214Z,51.185776
2022-11-03T10:11:07.206Z,51.185802
2022-11-03T10:12:07.191Z,51.185753
2022-11-03T10:13:07.611Z,51.185814
2022-11-03T10:14:07.181Z,51.185802
2022-11-03T10:15:07.179Z,51.185791
2022-11-03T10:16:07.193Z,51.185795
2022-11-03T10:17:07.158Z,51.185806
2022-11-03T10:18:07.159Z,51.185783
2022-11-03T10:19:07.149Z,51.185837
2022-11-03T10:20:07.802Z,51.185818
2022-11-03T10:21:07.143Z,51.185810
2022-11-03T10:22:07.169Z,51.185822
2022-11-03T10:23:07.439Z,51.185856
2022-11-03T10:24:07.115Z,51.185852
2022-11-03T10:25:07.096Z,51.185841
2022-11-03T10:26:07.097Z,51.185799
2022-11-03T10:27:07.132Z,51.185810
2022-11-03T10:28:10.400Z,51.185791
2022-11-03T10:29:08.132Z,51.185818
2022-11-03T10:30:07.069Z,51.185810
2022-11-03T10:31:14.305Z,51.185844
2022-11-03T10:32:08.073Z,51.185841
2022-11-03T10:33:07.395Z,51.185822
2022-11-03T10:34:07.060Z,51.185848
2022-11-03T10:35:07.036Z,51.185833
2022-11-03T10:36:07.022Z,51.185871
2022-11-03T10:37:07.027Z,51.185856
2022-11-03T10:38:07.158Z,51.185863
2022-11-03T10:39:07.833Z,51.185890
2022-11-03T10:40:07.147Z,51.185871
2022-11-03T10:41:06.988Z,51.185909
2022-11-03T10:42:06.978Z,51.185898
2022-11-03T10:43:07.299Z,51.185932
2022-11-03T10:44:06.961Z,51.185894
2022-11-03T10:45:07.002Z,51.185898
2022-11-03T10:46:10.730Z,51.185875
2022-11-03T10:47:07.940Z,51.185860
2022-11-03T10:48:06.942Z,51.185852
2022-11-03T10:50:06.919Z,51.185871
2022-11-03T10:51:06.940Z,51.185776
2022-11-03T10:52:06.923Z,51.185749
2022-11-03T10:53:07.246Z,51.185822
2022-11-03T10:54:06.937Z,51.185951
2022-11-03T10:55:06.898Z,51.185966
2022-11-03T10:56:06.870Z,51.185955
2022-11-03T10:57:06.884Z,51.185844
2022-11-03T10:58:07.222Z,51.185913
2022-11-03T10:59:06.894Z,51.185879
2022-11-03T11:00:06.848Z,51.185863
2022-11-03T11:01:06.882Z,51.185905
2022-11-03T11:02:07.015Z,51.185822
2022-11-03T11:03:07.099Z,51.185825
2022-11-03T11:04:06.986Z,51.185890
2022-11-03T11:05:06.826Z,51.185738
2022-11-03T11:06:06.810Z,51.185753
2022-11-03T11:07:07.646Z,51.185802
2022-11-03T11:08:06.882Z,51.185669
2022-11-03T11:09:06.827Z,51.185757
2022-11-03T11:10:06.809Z,51.185745
2022-11-03T11:11:06.768Z,51.185677
2022-11-03T11:12:06.791Z,51.185978
2022-11-03T11:13:07.205Z,51.185898
2022-11-03T11:14:06.796Z,51.185829
2022-11-03T11:15:06.742Z,51.185795
2022-11-03T11:16:06.733Z,51.185860
2022-11-03T11:17:06.731Z,51.185814
2022-11-03T11:18:06.784Z,51.185806
2022-11-03T11:19:06.724Z,51.185841
2022-11-03T11:20:06.722Z,51.185787
2022-11-03T11:21:06.699Z,51.185692
2022-11-03T11:22:06.686Z,51.185749
2022-11-03T11:23:07.012Z,51.185802
2022-11-03T11:24:06.668Z,51.186024
2022-11-03T11:25:06.669Z,51.185936
2022-11-03T11:26:06.679Z,51.185913
2022-11-03T11:27:06.660Z,51.185772
2022-11-03T11:28:06.655Z,51.185764
2022-11-03T11:29:06.640Z,51.185677
2022-11-03T11:30:06.623Z,51.185654